FKKD

Douala International Airport

Douala, Cameroon
METAR FKKD 180200Z 05002KT 6000 -RADZ SCT005 BKN012 FEW015CB 24/24 Q1012 TEMPO 4000 -RADZ
Observed Flight Rules
Aug-18 @ 02:00 UTC (27 minutes ago) Marginal Visual Flight Rules
Wind Visibility Clouds Conditions
50° at 2 knots 6,003 meters
  • Scattered at 500' AGL
  • Broken at 1,200' AGL
  • Few at 1,500' AGL
  • Light Rain
  • Light Drizzle
Temperatures Readings
Current 24°C / 75°F
Dewpoint 24°C / 75°F
Humidity 100%
Altimeter 29.88" Hg
Pressure 1012 hPa
Elevation 9
METAR FKKD 180200Z 05002KT 6000 -RADZ SCT005 BKN012 FEW015CB 24/24 Q1012 TEMPO 4000 -RADZ
Observed Flight Rules
Aug-18 @ 02:00 UTC
(27 minutes ago)
MVFR
Wind Visibility
50° at 2 knots 6,003 meters
Clouds
  • Scattered at 500' AGL
  • Broken at 1,200' AGL
  • Few at 1,500' AGL
Conditions
  • Light Rain
  • Light Drizzle
Temperature Dewpoint
24°C / 75°F 24°C / 75°F
Humidity Altimeter Pressure
100% 29.88" Hg 1012 hPa